Brashear, Texas
Current Conditions -  °F | °C
As of 5:15 AM on Sunday 21 Dec 2014 (Local Time) from KSLR Reporting Station
Overcast Overcast  
Wind Chill: 46°   Ceiling: 3500
Heat Index: 46°   Visibility: 7mi
Dew Point: 43°   Wind: 3mph
Humidity: 89%   Direction: 150°SSE
Pressure: 30.15"   Gusts: NA
Location:  33.12°N, 95.73°W
Report Text: KSLR 211115Z AUTO 15003KT 7SM SCT029 OVC035 08/06 A3015 RMK AO2 T00800063
Loading
Personal Weather Stations






























Interactive Weather Map New forecast layout! Learn more

10-Day Weather Forecast

Advertisements
Track Severe Weather on mobile